Angels Camp, California
Current Conditions -  °F | °C
As of 9:15 AM on Friday 31 Oct 2014 (Local Time) from KO22 Reporting Station
Few Clouds Few Clouds  
Wind Chill: 59°   Ceiling: Unl
Heat Index: 59°   Visibility: 10mi
Dew Point: 41°   Wind: 3mph
Humidity: 51%   Direction: 180°S
Pressure: 29.89"   Gusts: NA
Location:  38.07°N, 120.54°W
Report Text: KO22 311615Z AUTO 18003KT 10SM FEW100 15/05 A2989 RMK AO1
Loading
Personal Weather Stations






























Interactive Weather Map
Tropical Storm Tracking
New forecast layout! Learn more

10-Day Weather Forecast

Advertisements
Track Severe Weather on mobile